createdAt,value
2023-02-15T00:00:41.828Z,100.00
2023-02-15T00:05:43.536Z,100.00
2023-02-15T00:10:45.205Z,100.00
2023-02-15T00:15:46.859Z,100.00
2023-02-15T00:20:48.514Z,100.00
2023-02-15T00:25:50.971Z,100.00
2023-02-15T00:30:52.670Z,100.00
2023-02-15T00:35:59.063Z,100.00
2023-02-15T00:41:03.723Z,100.00
2023-02-15T00:46:06.892Z,100.00
2023-02-15T00:51:08.597Z,100.00
2023-02-15T00:56:10.249Z,100.00
2023-02-15T01:01:15.644Z,100.00
2023-02-15T01:06:17.881Z,100.00
2023-02-15T01:11:25.501Z,100.00
2023-02-15T01:16:29.657Z,100.00
2023-02-15T01:21:31.469Z,100.00
2023-02-15T01:26:33.136Z,100.00
2023-02-15T01:31:35.021Z,100.00
2023-02-15T01:36:36.883Z,100.00
2023-02-15T01:41:38.671Z,100.00
2023-02-15T01:46:48.386Z,100.00
2023-02-15T01:51:53.453Z,100.00
2023-02-15T01:57:01.590Z,100.00
2023-02-15T02:02:08.075Z,100.00
2023-02-15T02:07:13.608Z,100.00
2023-02-15T02:12:19.765Z,100.00
2023-02-15T02:17:58.955Z,100.00
2023-02-15T02:23:03.483Z,100.00
2023-02-15T02:28:31.215Z,100.00
2023-02-15T02:34:10.407Z,100.00
2023-02-15T02:39:33.597Z,100.00
2023-02-15T02:44:46.945Z,100.00
2023-02-15T02:49:48.735Z,100.00
2023-02-15T02:54:50.599Z,100.00
2023-02-15T02:59:55.207Z,100.00
2023-02-15T03:05:04.343Z,100.00
2023-02-15T03:10:08.204Z,100.00
2023-02-15T03:15:19.600Z,100.00
2023-02-15T03:20:34.608Z,100.00
2023-02-15T03:25:46.231Z,100.00
2023-02-15T03:30:53.569Z,100.00
2023-02-15T03:36:05.697Z,100.00
2023-02-15T03:41:11.381Z,100.00
2023-02-15T03:46:33.660Z,100.00
2023-02-15T03:51:41.117Z,100.00
2023-02-15T03:57:03.588Z,100.00
2023-02-15T04:02:25.397Z,100.00
2023-02-15T04:07:27.109Z,100.00
2023-02-15T04:12:28.795Z,100.00
2023-02-15T04:17:30.919Z,100.00
2023-02-15T04:22:51.179Z,100.00
2023-02-15T04:27:54.778Z,100.00
2023-02-15T04:32:58.079Z,100.00
2023-02-15T04:38:00.143Z,100.00
2023-02-15T04:43:01.885Z,100.00
2023-02-15T04:48:03.739Z,100.00
2023-02-15T04:53:05.433Z,100.00
2023-02-15T04:58:07.140Z,100.00
2023-02-15T05:03:08.838Z,100.00
2023-02-15T05:08:10.564Z,100.00
2023-02-15T05:13:12.195Z,100.00
2023-02-15T05:18:13.832Z,100.00
2023-02-15T05:23:16.079Z,100.00
2023-02-15T05:28:20.516Z,100.00
2023-02-15T05:33:22.192Z,100.00
2023-02-15T05:38:24.108Z,100.00
2023-02-15T05:43:26.669Z,100.00
2023-02-15T05:48:29.098Z,100.00
2023-02-15T05:53:32.985Z,100.00
2023-02-15T05:58:37.367Z,100.00
2023-02-15T06:03:39.150Z,100.00
2023-02-15T06:08:41.720Z,100.00
2023-02-15T06:13:43.818Z,100.00
2023-02-15T06:18:45.550Z,100.00
2023-02-15T06:23:47.311Z,100.00
2023-02-15T06:28:49.122Z,100.00
2023-02-15T06:33:50.977Z,100.00
2023-02-15T06:38:52.826Z,100.00
2023-02-15T06:43:54.675Z,100.00
2023-02-15T06:48:56.396Z,100.00
2023-02-15T06:53:58.250Z,100.00
2023-02-15T06:59:00.235Z,100.00
2023-02-15T07:04:01.986Z,100.00
2023-02-15T07:09:05.193Z,100.00
2023-02-15T07:14:06.968Z,100.00
2023-02-15T07:19:08.938Z,100.00
2023-02-15T07:24:10.655Z,100.00
2023-02-15T07:29:12.455Z,100.00
2023-02-15T07:34:14.368Z,100.00
2023-02-15T07:39:16.546Z,100.00
2023-02-15T07:44:18.583Z,100.00
2023-02-15T07:49:20.575Z,100.00
2023-02-15T07:54:22.336Z,100.00
2023-02-15T07:59:25.163Z,100.00
2023-02-15T08:04:27.224Z,100.00
2023-02-15T08:09:29.236Z,100.00
2023-02-15T08:14:30.985Z,100.00
2023-02-15T08:19:33.613Z,100.00
2023-02-15T08:24:40.625Z,100.00
2023-02-15T08:29:43.296Z,99.62
2023-02-15T08:34:45.231Z,100.00
2023-02-15T08:39:47.095Z,100.00
2023-02-15T08:44:51.524Z,98.80
2023-02-15T08:49:53.583Z,96.51
2023-02-15T08:54:56.076Z,96.67
2023-02-15T08:59:57.773Z,94.78
2023-02-15T09:04:59.578Z,94.49
2023-02-15T09:10:01.376Z,95.09
2023-02-15T09:15:03.220Z,93.98
2023-02-15T09:20:05.755Z,92.68
2023-02-15T09:25:07.898Z,91.25
2023-02-15T09:30:10.105Z,89.76
2023-02-15T09:35:11.933Z,86.65
2023-02-15T09:40:17.221Z,87.19
2023-02-15T09:45:29.334Z,89.16
2023-02-15T09:51:03.951Z,86.00
2023-02-15T09:56:15.076Z,85.46
2023-02-15T10:01:20.723Z,85.92
2023-02-15T10:06:45.546Z,86.53
2023-02-15T10:11:51.070Z,84.52
2023-02-15T10:17:05.197Z,83.61
2023-02-15T10:22:15.746Z,83.85
2023-02-15T10:27:21.258Z,84.16
2023-02-15T10:32:30.296Z,82.30
2023-02-15T10:38:10.539Z,79.60
2023-02-15T10:43:15.016Z,78.31
2023-02-15T10:48:28.425Z,74.67
2023-02-15T10:53:35.838Z,74.32
2023-02-15T10:59:23.207Z,71.15
2023-02-15T11:04:44.016Z,69.02
2023-02-15T11:09:50.500Z,70.33
2023-02-15T11:14:59.610Z,68.55
2023-02-15T11:20:17.187Z,67.52
2023-02-15T11:25:27.190Z,67.17
2023-02-15T11:30:41.880Z,64.45
2023-02-15T11:35:51.923Z,62.14
2023-02-15T11:41:16.070Z,60.93
2023-02-15T11:46:19.871Z,60.82
2023-02-15T11:51:24.230Z,60.73
2023-02-15T11:56:27.400Z,60.01
2023-02-15T12:01:41.856Z,58.93
2023-02-15T12:07:02.571Z,60.03
2023-02-15T12:12:42.002Z,61.33
2023-02-15T12:17:53.154Z,62.04
2023-02-15T12:23:03.481Z,60.25
2023-02-15T12:28:25.136Z,61.77
2023-02-15T12:33:31.370Z,63.26
2023-02-15T12:38:33.546Z,65.02
2023-02-15T12:43:38.057Z,64.92
2023-02-15T12:48:40.724Z,66.70
2023-02-15T12:53:45.119Z,67.87
2023-02-15T12:58:47.296Z,66.74
2023-02-15T13:04:04.281Z,66.41
2023-02-15T13:09:35.476Z,66.14
2023-02-15T13:14:37.850Z,66.80
2023-02-15T13:19:46.116Z,67.25
2023-02-15T13:25:00.200Z,67.90
2023-02-15T13:30:14.905Z,66.60
2023-02-15T13:35:19.815Z,68.01
2023-02-15T13:40:41.362Z,68.01
2023-02-15T13:46:11.104Z,68.19
2023-02-15T13:51:31.252Z,66.08
2023-02-15T13:56:54.132Z,65.98
2023-02-15T14:02:19.492Z,67.14
2023-02-15T14:07:42.704Z,66.34
2023-02-15T14:12:59.306Z,66.97
2023-02-15T14:18:05.118Z,67.16
2023-02-15T14:23:39.636Z,67.51
2023-02-15T14:28:52.068Z,66.62
2023-02-15T14:33:57.620Z,65.49
2023-02-15T14:39:36.152Z,66.57
2023-02-15T14:44:43.336Z,68.75
2023-02-15T14:49:45.088Z,70.65
2023-02-15T14:54:46.640Z,68.43
2023-02-15T15:00:02.217Z,69.75
2023-02-15T15:05:20.856Z,70.65
2023-02-15T15:10:22.434Z,71.83
2023-02-15T15:15:33.175Z,72.80
2023-02-15T15:20:45.654Z,73.24
2023-02-15T15:25:54.969Z,72.32
2023-02-15T15:30:57.810Z,72.34
2023-02-15T15:36:47.754Z,73.26
2023-02-15T15:42:18.825Z,74.02
2023-02-15T15:47:27.172Z,77.43
2023-02-15T15:52:29.920Z,78.44
2023-02-15T15:57:43.903Z,78.42
2023-02-15T16:02:57.057Z,80.43
2023-02-15T16:07:58.812Z,79.36
2023-02-15T16:13:01.302Z,80.22
2023-02-15T16:18:03.391Z,81.70
2023-02-15T16:23:36.013Z,83.78
2023-02-15T16:28:37.806Z,83.35
2023-02-15T16:33:41.077Z,82.95
2023-02-15T16:38:42.910Z,85.29
2023-02-15T16:43:48.686Z,84.20
2023-02-15T16:48:53.214Z,84.17
2023-02-15T16:53:56.909Z,86.41
2023-02-15T16:59:00.231Z,88.62
2023-02-15T17:04:27.054Z,88.08
2023-02-15T17:09:28.820Z,90.61
2023-02-15T17:14:41.993Z,90.69
2023-02-15T17:19:54.091Z,91.14
2023-02-15T17:25:05.440Z,90.85
2023-02-15T17:30:32.017Z,91.02
2023-02-15T17:35:34.426Z,90.58
2023-02-15T17:40:37.116Z,93.30
2023-02-15T17:45:49.017Z,92.65
2023-02-15T17:50:51.038Z,91.80
2023-02-15T17:55:52.854Z,92.78
2023-02-15T18:01:18.939Z,93.90
2023-02-15T18:06:42.309Z,93.15
2023-02-15T18:11:48.676Z,93.11
2023-02-15T18:16:50.775Z,93.79
2023-02-15T18:21:53.183Z,94.28
2023-02-15T18:26:55.212Z,93.92
2023-02-15T18:31:58.163Z,93.83
2023-02-15T18:37:03.188Z,94.21
2023-02-15T18:42:05.487Z,94.96
2023-02-15T18:47:07.210Z,95.93
2023-02-15T18:52:16.786Z,95.28
2023-02-15T18:57:19.288Z,96.46
2023-02-15T19:02:21.191Z,95.81
2023-02-15T19:07:26.166Z,96.15
2023-02-15T19:12:28.553Z,96.99
2023-02-15T19:17:30.347Z,96.45
2023-02-15T19:22:34.135Z,96.31
2023-02-15T19:27:36.313Z,97.27
2023-02-15T19:32:38.167Z,97.45
2023-02-15T19:37:42.613Z,98.39
2023-02-15T19:42:44.400Z,98.05
2023-02-15T19:47:48.230Z,98.35
2023-02-15T19:53:03.268Z,98.09
2023-02-15T19:58:12.141Z,98.61
2023-02-15T20:03:14.777Z,97.98
2023-02-15T20:08:20.394Z,99.13
2023-02-15T20:13:22.135Z,99.59
2023-02-15T20:18:24.058Z,98.92
2023-02-15T20:23:31.942Z,98.50
2023-02-15T20:28:33.936Z,98.18
2023-02-15T20:33:35.902Z,98.33
2023-02-15T20:38:37.740Z,98.29
2023-02-15T20:43:40.494Z,99.88
2023-02-15T20:48:42.144Z,98.78
2023-02-15T20:53:44.466Z,99.18
2023-02-15T20:58:46.220Z,98.95
2023-02-15T21:03:48.933Z,98.76
2023-02-15T21:08:50.824Z,98.34
2023-02-15T21:13:52.638Z,99.49
2023-02-15T21:18:54.300Z,99.79
2023-02-15T21:23:56.169Z,98.89
2023-02-15T21:28:57.832Z,98.40
2023-02-15T21:33:59.497Z,98.25
2023-02-15T21:39:01.537Z,98.47
2023-02-15T21:44:31.565Z,97.58
2023-02-15T21:49:33.495Z,97.58
2023-02-15T21:54:35.181Z,97.55
2023-02-15T21:59:36.936Z,97.23
2023-02-15T22:04:39.622Z,98.14
2023-02-15T22:09:41.537Z,98.65
2023-02-15T22:14:45.765Z,97.94
2023-02-15T22:19:49.662Z,97.79
2023-02-15T22:24:51.426Z,97.13
2023-02-15T22:29:54.842Z,97.32
2023-02-15T22:34:56.571Z,96.85
2023-02-15T22:39:58.271Z,97.34
2023-02-15T22:44:59.946Z,97.54
2023-02-15T22:50:02.982Z,97.75
2023-02-15T22:55:05.118Z,98.13
2023-02-15T23:00:07.857Z,98.62
2023-02-15T23:05:18.424Z,98.58
2023-02-15T23:10:22.663Z,98.10
2023-02-15T23:15:24.295Z,98.85
2023-02-15T23:20:25.966Z,98.25
2023-02-15T23:25:28.147Z,98.02
2023-02-15T23:30:29.863Z,97.84
2023-02-15T23:35:31.531Z,98.16
2023-02-15T23:40:51.933Z,97.14
2023-02-15T23:45:53.647Z,98.96
2023-02-15T23:50:55.473Z,99.49
2023-02-15T23:55:57.893Z,99.85
